Time;durP1;ratioP1;P1;durP2;ratioP2;P2;SDS_P1;SDS_P2;PMS_P1;PMS_P2;Temp;Humidity;BMP_temperature;BMP_pressure;BME280_temperature;BME280_humidity;BME280_pressure;Samples;Min_cycle;Max_cycle;Signal;HPM_P1;HPM_P2
2023/12/04 00:01:22;;;;;;;;;;;19.00;37.30;;;;;;5113508;28;19924;-57
2023/12/04 00:03:49;;;;;;;;;;;19.00;37.30;;;;;;5099246;28;19930;-56
2023/12/04 00:06:15;;;;;;;;;;;19.00;37.90;;;;;;5095934;28;19927;-55
2023/12/04 00:08:42;;;;;;;;;;;19.00;37.30;;;;;;5099918;28;20095;-57
2023/12/04 00:11:10;;;;;;;;;;;18.90;37.20;;;;;;5110753;28;19946;-57
2023/12/04 00:13:37;;;;;;;;;;;19.00;37.30;;;;;;5095945;28;19928;-57
2023/12/04 00:16:05;;;;;;;;;;;19.00;37.30;;;;;;5095364;28;20209;-57
2023/12/04 00:18:32;;;;;;;;;;;19.00;37.30;;;;;;5096232;28;19935;-57
2023/12/04 00:20:59;;;;;;;;;;;19.00;37.30;;;;;;5096317;28;19923;-57
2023/12/04 00:23:26;;;;;;;;;;;19.00;37.20;;;;;;5090846;28;19935;-57
2023/12/04 00:25:52;;;;;;;;;;;19.00;37.20;;;;;;5113681;28;19942;-55
2023/12/04 00:28:20;;;;;;;;;;;19.00;37.20;;;;;;5095232;28;19932;-57
2023/12/04 00:30:48;;;;;;;;;;;19.00;37.20;;;;;;5099940;28;19924;-57
2023/12/04 00:33:14;;;;;;;;;;;18.90;37.10;;;;;;5098813;28;19984;-56
2023/12/04 00:35:41;;;;;;;;;;;18.90;37.10;;;;;;5099182;28;19927;-56
2023/12/04 00:38:08;;;;;;;;;;;18.90;37.10;;;;;;5088943;28;19923;-57
2023/12/04 00:40:35;;;;;;;;;;;19.00;37.20;;;;;;5091319;28;19927;-54
2023/12/04 00:43:01;;;;;;;;;;;18.90;37.00;;;;;;5108477;28;19923;-55
2023/12/04 00:45:30;;;;;;;;;;;18.90;37.00;;;;;;5109571;28;19936;-56
2023/12/04 00:47:56;;;;;;;;;;;18.90;37.00;;;;;;5095031;28;19932;-55
2023/12/04 00:50:23;;;;;;;;;;;18.90;37.00;;;;;;5112625;28;19923;-56
2023/12/04 00:52:50;;;;;;;;;;;18.90;37.00;;;;;;5101182;28;19925;-55
2023/12/04 00:55:16;;;;;;;;;;;18.90;37.00;;;;;;5093515;28;19980;-55
2023/12/04 00:57:43;;;;;;;;;;;18.90;37.00;;;;;;5095313;28;19924;-54
2023/12/04 01:00:11;;;;;;;;;;;18.90;37.00;;;;;;5087595;28;19957;-56
2023/12/04 01:02:39;;;;;;;;;;;18.90;37.00;;;;;;5097111;28;19928;-54
2023/12/04 01:05:06;;;;;;;;;;;18.90;37.00;;;;;;5094027;28;19931;-54
2023/12/04 01:07:32;;;;;;;;;;;18.90;37.00;;;;;;5108082;28;19932;-55
2023/12/04 01:09:59;;;;;;;;;;;18.90;36.90;;;;;;5100697;28;19932;-57
2023/12/04 01:12:26;;;;;;;;;;;18.90;36.90;;;;;;5099304;28;19924;-55
2023/12/04 01:14:53;;;;;;;;;;;18.90;36.90;;;;;;5111618;28;19928;-55
2023/12/04 01:17:20;;;;;;;;;;;18.90;36.90;;;;;;5104990;28;19928;-57
2023/12/04 01:19:48;;;;;;;;;;;18.90;36.90;;;;;;5096604;28;19935;-57
2023/12/04 01:22:15;;;;;;;;;;;18.90;36.90;;;;;;5099321;28;19935;-58
2023/12/04 01:24:41;;;;;;;;;;;18.90;36.90;;;;;;5096764;28;20010;-56
2023/12/04 01:27:08;;;;;;;;;;;18.90;36.80;;;;;;5102165;28;19928;-55
2023/12/04 01:29:35;;;;;;;;;;;18.90;36.90;;;;;;5100644;28;20308;-56
2023/12/04 01:32:01;;;;;;;;;;;18.90;36.80;;;;;;5094421;28;20011;-56
2023/12/04 01:34:28;;;;;;;;;;;18.90;36.80;;;;;;5100701;28;19924;-57
2023/12/04 01:36:56;;;;;;;;;;;18.90;36.80;;;;;;5094413;28;19929;-57
2023/12/04 01:39:23;;;;;;;;;;;18.90;36.80;;;;;;5100916;28;19928;-56
2023/12/04 01:41:50;;;;;;;;;;;18.90;36.80;;;;;;5099065;28;19977;-57
2023/12/04 01:44:17;;;;;;;;;;;18.90;36.70;;;;;;5082154;28;19927;-57
2023/12/04 01:46:44;;;;;;;;;;;18.90;36.70;;;;;;5100948;28;19969;-57
2023/12/04 01:49:11;;;;;;;;;;;18.90;36.70;;;;;;5110732;28;19950;-56
2023/12/04 01:51:38;;;;;;;;;;;18.90;36.70;;;;;;5095326;28;19994;-56
2023/12/04 01:54:06;;;;;;;;;;;18.90;36.70;;;;;;5090017;28;19924;-56
2023/12/04 01:56:33;;;;;;;;;;;18.90;36.60;;;;;;5093742;28;19928;-56
2023/12/04 01:58:59;;;;;;;;;;;18.90;36.60;;;;;;5102987;28;19935;-57
2023/12/04 02:01:26;;;;;;;;;;;18.90;36.60;;;;;;5111909;28;19924;-56
2023/12/04 02:03:53;;;;;;;;;;;18.90;36.60;;;;;;5098283;28;19999;-56
2023/12/04 02:06:20;;;;;;;;;;;18.80;36.50;;;;;;5105494;28;19936;-58
2023/12/04 02:08:47;;;;;;;;;;;18.90;36.60;;;;;;5098723;28;20354;-55
2023/12/04 02:11:15;;;;;;;;;;;18.80;36.40;;;;;;5100849;28;19939;-55
2023/12/04 02:13:42;;;;;;;;;;;18.90;36.60;;;;;;5105761;28;19947;-57
2023/12/04 02:16:10;;;;;;;;;;;18.90;36.60;;;;;;5091424;28;19923;-57
2023/12/04 02:18:37;;;;;;;;;;;18.80;36.40;;;;;;5100961;28;19985;-57
2023/12/04 02:21:04;;;;;;;;;;;18.90;36.50;;;;;;5098692;28;19965;-56
2023/12/04 02:23:30;;;;;;;;;;;18.80;36.40;;;;;;5101850;28;19927;-57
2023/12/04 02:25:59;;;;;;;;;;;18.80;36.40;;;;;;5103588;28;19927;-57
2023/12/04 02:28:26;;;;;;;;;;;18.80;36.40;;;;;;5102681;28;19980;-56
2023/12/04 02:30:53;;;;;;;;;;;18.90;36.50;;;;;;5101589;28;19973;-57
2023/12/04 02:33:19;;;;;;;;;;;18.90;36.40;;;;;;5100869;28;19934;-57
2023/12/04 02:35:46;;;;;;;;;;;18.80;36.40;;;;;;5107028;28;19927;-57
2023/12/04 02:38:13;;;;;;;;;;;18.80;36.40;;;;;;5099462;28;19924;-57
2023/12/04 02:40:40;;;;;;;;;;;18.80;36.40;;;;;;5115153;28;20116;-56
2023/12/04 02:43:08;;;;;;;;;;;18.80;36.40;;;;;;5115284;28;19984;-55
2023/12/04 02:45:35;;;;;;;;;;;18.80;36.40;;;;;;5099688;28;19924;-56
2023/12/04 02:48:01;;;;;;;;;;;18.80;36.30;;;;;;5101326;28;19919;-57
2023/12/04 02:50:28;;;;;;;;;;;18.80;36.30;;;;;;5114907;28;20491;-55
2023/12/04 02:52:55;;;;;;;;;;;18.80;36.30;;;;;;5081542;28;19923;-55
2023/12/04 02:55:22;;;;;;;;;;;18.80;36.30;;;;;;5088720;28;19980;-56
2023/12/04 02:57:48;;;;;;;;;;;18.80;36.30;;;;;;5106832;28;19928;-57
2023/12/04 03:00:17;;;;;;;;;;;18.80;36.30;;;;;;5103545;28;19929;-57
2023/12/04 03:02:44;;;;;;;;;;;18.80;36.20;;;;;;5106485;28;19924;-56
2023/12/04 03:05:10;;;;;;;;;;;18.80;36.30;;;;;;5099937;28;19939;-54
2023/12/04 03:07:37;;;;;;;;;;;18.80;36.20;;;;;;5114941;28;19931;-56
2023/12/04 03:10:04;;;;;;;;;;;18.80;36.20;;;;;;5114650;28;19923;-57
2023/12/04 03:12:31;;;;;;;;;;;18.80;36.20;;;;;;5098508;28;19977;-56
2023/12/04 03:14:58;;;;;;;;;;;18.80;36.20;;;;;;5099204;28;19932;-57
2023/12/04 03:17:27;;;;;;;;;;;18.80;36.20;;;;;;5099911;28;19928;-57
2023/12/04 03:19:53;;;;;;;;;;;18.80;36.10;;;;;;5101879;28;19930;-57
2023/12/04 03:22:20;;;;;;;;;;;18.80;36.10;;;;;;5113274;28;19972;-57
2023/12/04 03:24:47;;;;;;;;;;;18.80;36.10;;;;;;5100761;28;19924;-57
2023/12/04 03:27:14;;;;;;;;;;;18.80;36.10;;;;;;5098063;28;19974;-56
2023/12/04 03:29:41;;;;;;;;;;;18.80;36.10;;;;;;5113730;28;19932;-56
2023/12/04 03:32:07;;;;;;;;;;;18.80;36.10;;;;;;5111776;27;19939;-57
2023/12/04 03:34:35;;;;;;;;;;;18.80;36.00;;;;;;5106297;28;19931;-57
2023/12/04 03:37:02;;;;;;;;;;;18.80;36.10;;;;;;5099297;28;19924;-55
2023/12/04 03:39:29;;;;;;;;;;;18.80;36.00;;;;;;5107673;28;19981;-56
2023/12/04 03:41:56;;;;;;;;;;;18.80;36.00;;;;;;5105723;28;19931;-55
2023/12/04 03:44:23;;;;;;;;;;;18.80;36.00;;;;;;5098783;28;19931;-53
2023/12/04 03:46:50;;;;;;;;;;;18.80;35.90;;;;;;5113402;28;19935;-54
2023/12/04 03:49:17;;;;;;;;;;;18.80;35.90;;;;;;5101291;28;19963;-55
2023/12/04 03:51:45;;;;;;;;;;;18.80;35.90;;;;;;5108891;28;19953;-57
2023/12/04 03:54:13;;;;;;;;;;;18.80;35.90;;;;;;5111238;28;19924;-57
2023/12/04 03:56:40;;;;;;;;;;;18.80;35.90;;;;;;5113192;28;20694;-56
2023/12/04 03:59:07;;;;;;;;;;;18.80;35.90;;;;;;5112746;28;19939;-56
2023/12/04 04:01:33;;;;;;;;;;;18.80;35.90;;;;;;5102815;28;19978;-56
2023/12/04 04:04:00;;;;;;;;;;;18.80;35.90;;;;;;5099435;28;19931;-54
2023/12/04 04:06:27;;;;;;;;;;;18.80;35.90;;;;;;5113046;28;19943;-56
2023/12/04 04:08:55;;;;;;;;;;;18.80;35.90;;;;;;5106009;28;19931;-55
2023/12/04 04:11:22;;;;;;;;;;;18.80;35.80;;;;;;5077390;28;19938;-56
2023/12/04 04:13:49;;;;;;;;;;;18.80;35.80;;;;;;5103253;28;19924;-55
2023/12/04 04:16:16;;;;;;;;;;;18.80;35.80;;;;;;5106001;28;19931;-57
2023/12/04 04:18:43;;;;;;;;;;;18.80;35.80;;;;;;5102516;28;19924;-54
2023/12/04 04:21:10;;;;;;;;;;;18.80;35.80;;;;;;5105542;28;20034;-54
2023/12/04 04:23:37;;;;;;;;;;;18.70;35.70;;;;;;5112657;28;19924;-54
2023/12/04 04:26:05;;;;;;;;;;;18.80;35.80;;;;;;5103706;28;19924;-57
2023/12/04 04:28:32;;;;;;;;;;;18.80;35.80;;;;;;5099484;28;19931;-55
2023/12/04 04:30:59;;;;;;;;;;;18.80;35.80;;;;;;5092839;28;20027;-52
2023/12/04 04:33:26;;;;;;;;;;;18.80;35.80;;;;;;5111002;28;19931;-55
2023/12/04 04:35:53;;;;;;;;;;;18.70;35.70;;;;;;5101687;28;19924;-55
2023/12/04 04:38:19;;;;;;;;;;;18.80;35.80;;;;;;5103113;28;19932;-54
2023/12/04 04:40:46;;;;;;;;;;;18.80;35.80;;;;;;5113213;28;19993;-56
2023/12/04 04:43:14;;;;;;;;;;;18.80;35.80;;;;;;5100909;28;19928;-56
2023/12/04 04:45:41;;;;;;;;;;;18.80;35.80;;;;;;5112817;28;19928;-55
2023/12/04 04:48:08;;;;;;;;;;;18.80;35.70;;;;;;5105749;28;19932;-57
2023/12/04 04:50:34;;;;;;;;;;;18.80;35.70;;;;;;5097708;28;19931;-54
2023/12/04 04:53:01;;;;;;;;;;;18.80;35.70;;;;;;5098197;28;19953;-57
2023/12/04 04:55:28;;;;;;;;;;;18.80;35.70;;;;;;5104428;28;19935;-55
2023/12/04 04:57:55;;;;;;;;;;;18.80;35.70;;;;;;5112750;28;19959;-56
2023/12/04 05:00:23;;;;;;;;;;;18.80;35.70;;;;;;5112650;28;19928;-55
2023/12/04 05:02:50;;;;;;;;;;;18.80;35.70;;;;;;5103047;28;19943;-55
2023/12/04 05:05:16;;;;;;;;;;;18.80;35.70;;;;;;5102579;28;19923;-55
2023/12/04 05:07:43;;;;;;;;;;;18.70;35.70;;;;;;5098870;28;19928;-54
2023/12/04 05:10:10;;;;;;;;;;;18.80;35.80;;;;;;5096102;28;19923;-54
2023/12/04 05:12:37;;;;;;;;;;;18.80;35.80;;;;;;5099273;28;19964;-56
2023/12/04 05:15:04;;;;;;;;;;;18.80;35.70;;;;;;5103210;28;19923;-56
2023/12/04 05:17:32;;;;;;;;;;;18.70;35.60;;;;;;5101612;28;19980;-54
2023/12/04 05:19:59;;;;;;;;;;;18.70;35.60;;;;;;5109785;28;20388;-57
2023/12/04 05:22:26;;;;;;;;;;;18.80;35.70;;;;;;5108874;28;20426;-56
2023/12/04 05:24:52;;;;;;;;;;;18.80;35.70;;;;;;5093997;28;20237;-54
2023/12/04 05:27:19;;;;;;;;;;;18.80;36.30;;;;;;5093822;28;19923;-56
2023/12/04 05:29:46;;;;;;;;;;;18.80;35.70;;;;;;5099474;28;19928;-55
2023/12/04 05:32:13;;;;;;;;;;;18.80;35.60;;;;;;5101474;28;19924;-56
2023/12/04 05:34:42;;;;;;;;;;;18.70;35.50;;;;;;5099348;28;20286;-54
2023/12/04 05:37:08;;;;;;;;;;;18.80;35.70;;;;;;5100782;28;20002;-55
2023/12/04 05:39:35;;;;;;;;;;;18.70;35.50;;;;;;5110613;28;19928;-55
2023/12/04 05:42:03;;;;;;;;;;;18.80;35.60;;;;;;5095818;28;19930;-53
2023/12/04 05:44:29;;;;;;;;;;;18.80;35.60;;;;;;5111843;28;20408;-55
2023/12/04 05:46:56;;;;;;;;;;;18.80;35.60;;;;;;5093873;28;19923;-55
2023/12/04 05:49:23;;;;;;;;;;;18.80;35.60;;;;;;5109800;28;19931;-55
2023/12/04 05:51:52;;;;;;;;;;;18.80;35.60;;;;;;5101178;28;19938;-57
2023/12/04 05:54:18;;;;;;;;;;;18.80;35.60;;;;;;5101393;28;19984;-55
2023/12/04 05:56:45;;;;;;;;;;;18.80;35.60;;;;;;5098622;28;19930;-54
2023/12/04 05:59:12;;;;;;;;;;;18.80;35.60;;;;;;5096561;28;19924;-56
2023/12/04 06:01:38;;;;;;;;;;;18.80;35.60;;;;;;5110126;28;19927;-55
2023/12/04 06:04:05;;;;;;;;;;;18.80;35.60;;;;;;5112442;28;19939;-56
2023/12/04 06:06:32;;;;;;;;;;;18.70;35.50;;;;;;5103865;28;19928;-56
2023/12/04 06:09:00;;;;;;;;;;;18.80;35.60;;;;;;5100141;28;19931;-54
2023/12/04 06:11:27;;;;;;;;;;;18.80;35.60;;;;;;5104476;28;19923;-56
2023/12/04 06:13:54;;;;;;;;;;;18.80;35.60;;;;;;5098653;28;20273;-54
2023/12/04 06:16:20;;;;;;;;;;;18.80;35.60;;;;;;5097125;28;19932;-56
2023/12/04 06:18:47;;;;;;;;;;;18.80;35.50;;;;;;5122195;27;19923;-58
2023/12/04 06:21:14;;;;;;;;;;;18.80;35.60;;;;;;5097620;28;19931;-56
2023/12/04 06:23:41;;;;;;;;;;;18.70;35.50;;;;;;5096685;27;19942;-55
2023/12/04 06:26:10;;;;;;;;;;;18.70;35.40;;;;;;5104911;28;20373;-54
2023/12/04 06:28:37;;;;;;;;;;;18.70;35.40;;;;;;5101908;28;19930;-56
2023/12/04 06:31:05;;;;;;;;;;;18.80;35.50;;;;;;5098656;28;19981;-55
2023/12/04 06:33:32;;;;;;;;;;;18.80;35.60;;;;;;5098203;28;19932;-56
2023/12/04 06:35:58;;;;;;;;;;;18.80;35.60;;;;;;5115297;28;19946;-54
2023/12/04 06:38:26;;;;;;;;;;;18.70;35.50;;;;;;5102550;28;19932;-57
2023/12/04 06:40:53;;;;;;;;;;;18.70;35.40;;;;;;5112170;28;19923;-57
2023/12/04 06:43:22;;;;;;;;;;;18.80;35.60;;;;;;5109948;28;19923;-56
2023/12/04 06:45:49;;;;;;;;;;;18.70;35.40;;;;;;5104832;28;19931;-57
2023/12/04 06:48:16;;;;;;;;;;;18.80;35.60;;;;;;5105832;28;19924;-55
2023/12/04 06:50:43;;;;;;;;;;;18.70;35.40;;;;;;5115587;28;19977;-55
2023/12/04 06:53:09;;;;;;;;;;;18.70;35.40;;;;;;5097745;28;19924;-56
2023/12/04 06:55:36;;;;;;;;;;;18.70;35.40;;;;;;5097483;28;19924;-57
2023/12/04 06:58:03;;;;;;;;;;;18.70;35.40;;;;;;5097761;28;19930;-56
2023/12/04 07:00:31;;;;;;;;;;;18.70;35.40;;;;;;5106260;28;19932;-57
2023/12/04 07:02:58;;;;;;;;;;;18.80;35.50;;;;;;5109504;28;19977;-56
2023/12/04 07:05:24;;;;;;;;;;;18.70;35.40;;;;;;5096609;28;20266;-56
2023/12/04 07:07:51;;;;;;;;;;;18.80;35.50;;;;;;5115404;28;19928;-57
2023/12/04 07:10:18;;;;;;;;;;;18.70;35.40;;;;;;5097797;28;19931;-57
2023/12/04 07:12:45;;;;;;;;;;;18.70;35.40;;;;;;5104445;28;19997;-56
2023/12/04 07:15:12;;;;;;;;;;;18.70;35.40;;;;;;5098502;28;19940;-56
2023/12/04 07:17:40;;;;;;;;;;;18.70;35.40;;;;;;5102161;27;20024;-56
2023/12/04 07:20:08;;;;;;;;;;;18.70;35.40;;;;;;5112774;27;19924;-57
2023/12/04 07:22:34;;;;;;;;;;;18.70;35.40;;;;;;5110977;28;19928;-58
2023/12/04 07:25:01;;;;;;;;;;;18.70;35.40;;;;;;5105153;28;19928;-57
2023/12/04 07:27:28;;;;;;;;;;;18.70;35.40;;;;;;5113076;28;19977;-58
2023/12/04 07:29:55;;;;;;;;;;;18.70;35.40;;;;;;5112952;28;19923;-56
2023/12/04 07:32:22;;;;;;;;;;;18.70;35.40;;;;;;5093319;28;19927;-56
2023/12/04 07:34:50;;;;;;;;;;;18.70;35.40;;;;;;5098038;28;19924;-57
2023/12/04 07:37:17;;;;;;;;;;;18.70;35.40;;;;;;5100678;28;19943;-57
2023/12/04 07:39:45;;;;;;;;;;;18.70;35.40;;;;;;5098322;28;19928;-56
2023/12/04 07:42:12;;;;;;;;;;;18.70;35.50;;;;;;5103364;27;19927;-56
2023/12/04 07:44:39;;;;;;;;;;;18.70;35.50;;;;;;5098273;28;19923;-56
2023/12/04 07:47:06;;;;;;;;;;;18.70;35.50;;;;;;5101898;28;19959;-57
2023/12/04 07:49:33;;;;;;;;;;;18.70;35.50;;;;;;5097370;28;19928;-56
2023/12/04 07:52:01;;;;;;;;;;;18.70;35.50;;;;;;5102232;28;19928;-56
2023/12/04 07:54:28;;;;;;;;;;;18.70;35.50;;;;;;5113967;27;19924;-55
2023/12/04 07:56:54;;;;;;;;;;;18.70;35.50;;;;;;5098085;28;19924;-55
2023/12/04 07:59:21;;;;;;;;;;;18.70;35.50;;;;;;5093494;28;19927;-55
2023/12/04 08:01:48;;;;;;;;;;;18.70;35.50;;;;;;5090156;28;19936;-57
2023/12/04 08:04:15;;;;;;;;;;;18.70;35.50;;;;;;5082566;28;19931;-56
2023/12/04 08:06:41;;;;;;;;;;;18.70;35.50;;;;;;5075680;28;19928;-56
2023/12/04 08:09:10;;;;;;;;;;;18.70;35.50;;;;;;5088375;28;19977;-56
2023/12/04 08:11:36;;;;;;;;;;;18.70;35.60;;;;;;5097890;28;19959;-57
2023/12/04 08:14:03;;;;;;;;;;;18.70;35.60;;;;;;5106985;28;19928;-55
2023/12/04 08:16:30;;;;;;;;;;;18.70;35.60;;;;;;5083405;28;19928;-56
2023/12/04 08:18:57;;;;;;;;;;;18.70;35.60;;;;;;5111154;28;19923;-57
2023/12/04 08:21:23;;;;;;;;;;;18.70;35.60;;;;;;5087426;28;19927;-56
2023/12/04 08:23:50;;;;;;;;;;;18.70;35.60;;;;;;5091118;28;19931;-57
2023/12/04 08:26:24;;;;;;;;;;;18.70;35.60;;;;;;5093087;28;19945;-56
2023/12/04 08:28:50;;;;;;;;;;;18.70;35.60;;;;;;5107525;28;19928;-56
2023/12/04 08:31:17;;;;;;;;;;;18.70;35.60;;;;;;5103261;28;19988;-52
2023/12/04 08:33:44;;;;;;;;;;;18.70;35.60;;;;;;5094123;28;19932;-56
2023/12/04 08:36:11;;;;;;;;;;;18.70;35.60;;;;;;5089102;28;19928;-55
2023/12/04 08:38:38;;;;;;;;;;;18.70;35.60;;;;;;5090348;28;20115;-53
2023/12/04 08:41:05;;;;;;;;;;;18.70;35.60;;;;;;5097707;28;19935;-55
2023/12/04 08:43:33;;;;;;;;;;;18.80;35.80;;;;;;5110635;28;19988;-56
2023/12/04 08:46:00;;;;;;;;;;;18.70;35.70;;;;;;5100155;28;20001;-55
2023/12/04 08:48:27;;;;;;;;;;;18.70;35.70;;;;;;5100622;28;19971;-57
2023/12/04 08:50:53;;;;;;;;;;;18.70;35.70;;;;;;5098676;28;20342;-56
2023/12/04 08:53:20;;;;;;;;;;;18.70;35.70;;;;;;5095761;28;19938;-56
2023/12/04 08:55:47;;;;;;;;;;;18.80;35.80;;;;;;5100412;28;20065;-56
2023/12/04 08:58:14;;;;;;;;;;;18.80;35.80;;;;;;5105046;28;19931;-57
2023/12/04 09:00:43;;;;;;;;;;;18.80;35.80;;;;;;5093285;28;19931;-56
2023/12/04 09:03:11;;;;;;;;;;;18.80;35.80;;;;;;5101440;28;19923;-56
2023/12/04 09:05:38;;;;;;;;;;;18.80;35.70;;;;;;5092519;28;19924;-57
2023/12/04 09:08:04;;;;;;;;;;;18.80;35.70;;;;;;5092305;28;19931;-57
2023/12/04 09:10:31;;;;;;;;;;;18.80;35.70;;;;;;5088133;28;19931;-57
2023/12/04 09:12:58;;;;;;;;;;;18.80;35.80;;;;;;5109421;28;19952;-56
2023/12/04 09:15:25;;;;;;;;;;;18.80;35.80;;;;;;5092497;28;19931;-57
2023/12/04 09:17:53;;;;;;;;;;;18.70;35.70;;;;;;5091237;28;19931;-57
2023/12/04 09:20:20;;;;;;;;;;;18.70;35.70;;;;;;5076335;28;19928;-56
2023/12/04 09:22:47;;;;;;;;;;;18.80;35.80;;;;;;5093496;28;20018;-53
2023/12/04 09:25:14;;;;;;;;;;;18.80;35.90;;;;;;5102046;28;19935;-56
2023/12/04 09:27:41;;;;;;;;;;;18.70;35.80;;;;;;5113404;27;19924;-56
2023/12/04 09:30:08;;;;;;;;;;;18.80;35.90;;;;;;5111231;28;19928;-56
2023/12/04 09:32:35;;;;;;;;;;;18.80;36.00;;;;;;5107115;28;19924;-59
2023/12/04 09:35:03;;;;;;;;;;;18.70;36.00;;;;;;5102351;28;19973;-61
2023/12/04 09:37:30;;;;;;;;;;;18.80;33.90;;;;;;5112032;28;20047;-60
2023/12/04 09:39:57;;;;;;;;;;;18.70;31.10;;;;;;5094231;28;19931;-57
2023/12/04 09:42:24;;;;;;;;;;;18.50;30.20;;;;;;5096509;28;19931;-58
2023/12/04 09:44:50;;;;;;;;;;;18.40;30.50;;;;;;5097631;28;19981;-57
2023/12/04 09:47:17;;;;;;;;;;;18.30;30.90;;;;;;5098490;28;19923;-56
2023/12/04 09:49:44;;;;;;;;;;;18.20;31.40;;;;;;5098324;28;19932;-57
2023/12/04 09:52:12;;;;;;;;;;;18.20;31.80;;;;;;5105383;28;19924;-57
2023/12/04 09:54:39;;;;;;;;;;;18.10;32.10;;;;;;5107230;28;19928;-55
2023/12/04 09:57:06;;;;;;;;;;;18.20;32.50;;;;;;5099756;28;19938;-57
2023/12/04 09:59:32;;;;;;;;;;;18.20;32.70;;;;;;5079782;28;19991;-58
2023/12/04 10:01:59;;;;;;;;;;;18.20;32.90;;;;;;5109481;28;19931;-57
2023/12/04 10:04:26;;;;;;;;;;;18.20;33.10;;;;;;5106257;28;19924;-57
2023/12/04 10:06:53;;;;;;;;;;;18.20;33.20;;;;;;5097934;28;19924;-57
2023/12/04 10:09:22;;;;;;;;;;;18.30;33.50;;;;;;5101707;28;19995;-57
2023/12/04 10:11:49;;;;;;;;;;;18.30;33.50;;;;;;5101362;28;19973;-56
2023/12/04 10:14:17;;;;;;;;;;;18.30;33.70;;;;;;5101487;28;19959;-57
2023/12/04 10:16:44;;;;;;;;;;;18.30;33.70;;;;;;5105257;28;19924;-57
2023/12/04 10:19:18;;;;;;;;;;;18.30;33.80;;;;;;5120634;27;20011;-57
2023/12/04 10:21:45;;;;;;;;;;;18.30;33.90;;;;;;5097741;28;19982;-57
2023/12/04 10:24:11;;;;;;;;;;;18.30;34.00;;;;;;5089589;28;19931;-57
2023/12/04 10:26:40;;;;;;;;;;;18.40;34.10;;;;;;5097275;28;20014;-59
2023/12/04 10:29:07;;;;;;;;;;;18.40;34.20;;;;;;5097207;28;20026;-61
2023/12/04 10:31:34;;;;;;;;;;;18.40;34.10;;;;;;5114627;28;19963;-53
2023/12/04 10:34:01;;;;;;;;;;;18.40;34.00;;;;;;5097618;28;19993;-54
2023/12/04 10:36:28;;;;;;;;;;;18.40;34.20;;;;;;5106969;28;19923;-52
2023/12/04 10:38:59;;;;;;;;;;;18.40;34.20;;;;;;5114359;28;19934;-55
2023/12/04 10:41:26;;;;;;;;;;;18.40;34.30;;;;;;5114911;28;19962;-52
2023/12/04 10:43:54;;;;;;;;;;;18.50;34.50;;;;;;5104439;28;19924;-56
2023/12/04 10:46:21;;;;;;;;;;;18.50;34.50;;;;;;5107022;28;20116;-56
2023/12/04 10:48:48;;;;;;;;;;;18.50;34.50;;;;;;5094617;28;19923;-56
2023/12/04 10:51:15;;;;;;;;;;;18.50;34.60;;;;;;5109845;28;19934;-54
2023/12/04 10:53:42;;;;;;;;;;;18.50;34.60;;;;;;5111805;28;19924;-56
2023/12/04 10:56:09;;;;;;;;;;;18.50;34.70;;;;;;5113777;28;19946;-55
2023/12/04 10:58:36;;;;;;;;;;;18.50;34.80;;;;;;5114127;28;19924;-57
2023/12/04 11:01:08;;;;;;;;;;;18.50;34.80;;;;;;5113732;28;19928;-56
2023/12/04 11:03:35;;;;;;;;;;;18.50;34.80;;;;;;5112219;28;19927;-57
2023/12/04 11:06:04;;;;;;;;;;;18.60;34.90;;;;;;5101438;28;19924;-53
2023/12/04 11:08:31;;;;;;;;;;;18.60;34.90;;;;;;5096797;28;20369;-56
2023/12/04 11:10:58;;;;;;;;;;;18.60;35.00;;;;;;5113838;28;19923;-55
2023/12/04 11:13:27;;;;;;;;;;;18.60;35.00;;;;;;5099743;28;19923;-57
2023/12/04 11:15:54;;;;;;;;;;;18.60;35.00;;;;;;5096553;28;19924;-57
2023/12/04 11:18:23;;;;;;;;;;;18.60;35.10;;;;;;5095499;28;19928;-57
2023/12/04 11:20:52;;;;;;;;;;;18.60;35.10;;;;;;5095387;28;20292;-57
2023/12/04 11:23:18;;;;;;;;;;;18.70;35.20;;;;;;5097723;28;19923;-58
2023/12/04 11:25:47;;;;;;;;;;;18.70;35.20;;;;;;5113159;28;19923;-54
2023/12/04 11:28:14;;;;;;;;;;;18.70;35.30;;;;;;5098163;28;19928;-53
2023/12/04 11:30:40;;;;;;;;;;;18.70;35.20;;;;;;5098973;28;19973;-58
2023/12/04 11:33:07;;;;;;;;;;;18.70;35.30;;;;;;5112943;28;19928;-61
2023/12/04 11:35:35;;;;;;;;;;;18.70;35.30;;;;;;5094054;28;19927;-62
2023/12/04 11:38:02;;;;;;;;;;;18.70;35.00;;;;;;5093858;28;19936;-59
2023/12/04 11:40:29;;;;;;;;;;;18.70;34.60;;;;;;5091933;28;19924;-60
2023/12/04 11:42:55;;;;;;;;;;;18.70;34.50;;;;;;5113327;28;19931;-59
2023/12/04 11:45:22;;;;;;;;;;;18.60;34.20;;;;;;5112999;28;19938;-60
2023/12/04 11:47:52;;;;;;;;;;;18.60;34.10;;;;;;5113032;28;19927;-62
2023/12/04 11:50:19;;;;;;;;;;;18.60;33.90;;;;;;5094731;28;20449;-64
2023/12/04 11:52:48;;;;;;;;;;;18.60;33.70;;;;;;5113449;28;19955;-60
2023/12/04 11:55:16;;;;;;;;;;;18.60;33.70;;;;;;5094366;28;19927;-60
2023/12/04 11:57:43;;;;;;;;;;;18.60;33.50;;;;;;5100047;28;20019;-56
2023/12/04 12:00:09;;;;;;;;;;;18.60;33.50;;;;;;5094996;28;19923;-55
2023/12/04 12:02:36;;;;;;;;;;;18.50;33.80;;;;;;5094016;28;19972;-54
2023/12/04 12:05:03;;;;;;;;;;;18.50;34.00;;;;;;5111835;28;19924;-55
2023/12/04 12:07:30;;;;;;;;;;;18.50;34.10;;;;;;5094537;28;19924;-56
2023/12/04 12:09:58;;;;;;;;;;;18.60;34.30;;;;;;5094651;28;19931;-55
2023/12/04 12:12:25;;;;;;;;;;;18.60;34.40;;;;;;5096919;28;19931;-57
2023/12/04 12:14:52;;;;;;;;;;;18.60;34.50;;;;;;5093946;28;19928;-57
2023/12/04 12:17:19;;;;;;;;;;;18.60;34.50;;;;;;5096108;28;19932;-57
2023/12/04 12:19:46;;;;;;;;;;;18.60;34.60;;;;;;5111645;28;19959;-58
2023/12/04 12:22:13;;;;;;;;;;;18.60;34.70;;;;;;5112245;28;19924;-56
2023/12/04 12:24:40;;;;;;;;;;;18.70;34.80;;;;;;5094563;28;19973;-57
2023/12/04 12:27:08;;;;;;;;;;;18.70;34.80;;;;;;5094535;28;19923;-55
2023/12/04 12:29:35;;;;;;;;;;;18.70;34.80;;;;;;5093811;28;19996;-56
2023/12/04 12:32:03;;;;;;;;;;;18.70;34.90;;;;;;5095178;28;19932;-55
2023/12/04 12:34:31;;;;;;;;;;;18.70;35.50;;;;;;5096027;28;19924;-58
2023/12/04 12:36:57;;;;;;;;;;;18.70;35.00;;;;;;5095024;28;20462;-54
2023/12/04 12:39:24;;;;;;;;;;;18.80;35.10;;;;;;5095285;28;19919;-55
2023/12/04 12:41:51;;;;;;;;;;;18.70;35.00;;;;;;5101228;28;19938;-56
2023/12/04 12:44:19;;;;;;;;;;;18.80;35.10;;;;;;5094103;28;19931;-57
2023/12/04 12:46:48;;;;;;;;;;;18.70;35.10;;;;;;5099600;28;19924;-56
2023/12/04 12:49:15;;;;;;;;;;;18.80;35.20;;;;;;5112603;28;19930;-58
2023/12/04 12:51:43;;;;;;;;;;;18.80;35.20;;;;;;5087515;28;20111;-54
2023/12/04 12:54:10;;;;;;;;;;;18.80;35.30;;;;;;5090159;28;19924;-54
2023/12/04 12:56:37;;;;;;;;;;;18.80;35.30;;;;;;5113530;28;19927;-56
2023/12/04 12:59:05;;;;;;;;;;;18.80;35.30;;;;;;5094453;28;19923;-55
2023/12/04 13:01:33;;;;;;;;;;;18.90;35.50;;;;;;5092301;28;19924;-59
2023/12/04 13:04:01;;;;;;;;;;;18.80;35.40;;;;;;5092034;28;19940;-56
2023/12/04 13:06:27;;;;;;;;;;;18.80;35.40;;;;;;5093573;28;19934;-56
2023/12/04 13:08:55;;;;;;;;;;;18.90;35.60;;;;;;5097624;28;19927;-57
2023/12/04 13:11:21;;;;;;;;;;;18.80;35.50;;;;;;5078276;28;19973;-56
2023/12/04 13:13:48;;;;;;;;;;;18.90;35.60;;;;;;5094414;28;19924;-58
2023/12/04 13:16:15;;;;;;;;;;;18.90;35.60;;;;;;5102342;28;19928;-57
2023/12/04 13:18:44;;;;;;;;;;;18.90;35.60;;;;;;5080265;28;19982;-56
2023/12/04 13:21:11;;;;;;;;;;;18.90;35.70;;;;;;5095620;28;19923;-56
2023/12/04 13:23:38;;;;;;;;;;;18.80;35.60;;;;;;5094759;28;19924;-56
2023/12/04 13:26:05;;;;;;;;;;;18.90;35.70;;;;;;5109925;28;20133;-58
2023/12/04 13:28:32;;;;;;;;;;;18.90;35.80;;;;;;5112249;28;19924;-58
2023/12/04 13:30:59;;;;;;;;;;;18.90;35.80;;;;;;5111684;28;19924;-58
2023/12/04 13:33:26;;;;;;;;;;;18.80;35.70;;;;;;5111469;28;19931;-58
2023/12/04 13:35:54;;;;;;;;;;;18.90;35.80;;;;;;5111257;28;20389;-58
2023/12/04 13:38:21;;;;;;;;;;;18.90;35.80;;;;;;5095588;28;20258;-58
2023/12/04 13:40:59;;;;;;;;;;;18.80;35.80;;;;;;5095728;28;20539;-58
2023/12/04 13:46:11;;;;;;;;;;;18.80;35.80;;;;;;5089048;28;19938;-58
2023/12/04 13:48:40;;;;;;;;;;;18.80;35.80;;;;;;5093401;28;19932;-58
2023/12/04 13:51:09;;;;;;;;;;;18.90;35.90;;;;;;5090955;28;19973;-58
2023/12/04 13:53:39;;;;;;;;;;;18.80;35.90;;;;;;5086350;28;20396;-58
2023/12/04 13:56:25;;;;;;;;;;;18.90;36.00;;;;;;5111307;28;19931;-58
2023/12/04 13:58:56;;;;;;;;;;;18.90;36.00;;;;;;5093167;28;20385;-58
2023/12/04 14:01:24;;;;;;;;;;;18.90;36.00;;;;;;5092939;28;19928;-58
2023/12/04 14:03:51;;;;;;;;;;;18.90;36.00;;;;;;5094783;28;19956;-58
2023/12/04 14:06:20;;;;;;;;;;;18.80;36.00;;;;;;5092418;28;19928;-58
2023/12/04 14:08:47;;;;;;;;;;;18.90;36.10;;;;;;5091634;28;20187;-59
2023/12/04 14:11:14;;;;;;;;;;;18.90;36.10;;;;;;5110820;28;19981;-58
2023/12/04 14:13:41;;;;;;;;;;;18.90;36.10;;;;;;5110050;28;20182;-58
2023/12/04 14:16:08;;;;;;;;;;;18.90;36.10;;;;;;5092371;28;20428;-55
2023/12/04 14:18:34;;;;;;;;;;;18.80;36.00;;;;;;5110824;28;19946;-58